Time;durP1;ratioP1;P1;durP2;ratioP2;P2;SDS_P1;SDS_P2;PMS_P1;PMS_P2;Temp;Humidity;BMP_temperature;BMP_pressure;BME280_temperature;BME280_humidity;BME280_pressure;Samples;Min_cycle;Max_cycle;Signal;HPM_P1;HPM_P2
2022/12/10 00:00:54;;;;;;;147.30;44.15;;;0.90;99.90;;;;;;5071476;28;20020;-77
2022/12/10 00:03:19;;;;;;;152.15;44.05;;;0.90;99.90;;;;;;5071888;28;20025;-77
2022/12/10 00:05:45;;;;;;;140.38;43.00;;;0.90;99.90;;;;;;5072575;28;20455;-77
2022/12/10 00:08:10;;;;;;;138.23;41.40;;;0.90;99.90;;;;;;5063504;28;20032;-78
2022/12/10 00:10:39;;;;;;;152.50;43.70;;;0.80;99.90;;;;;;5067315;28;20028;-77
2022/12/10 00:13:05;;;;;;;138.27;41.75;;;0.80;99.90;;;;;;5069387;28;20059;-78
2022/12/10 00:15:34;;;;;;;145.02;44.17;;;0.80;99.90;;;;;;5061062;28;20021;-77
2022/12/10 00:18:00;;;;;;;146.25;42.95;;;0.80;99.90;;;;;;5063487;28;20024;-78
2022/12/10 00:20:25;;;;;;;137.43;41.95;;;0.70;99.90;;;;;;5062504;28;20040;-78
2022/12/10 00:22:51;;;;;;;149.40;43.05;;;0.70;99.90;;;;;;5070570;28;20057;-78
2022/12/10 00:25:17;;;;;;;136.18;43.08;;;0.70;99.90;;;;;;5071913;28;20052;-78
2022/12/10 00:27:42;;;;;;;144.00;42.75;;;0.70;99.90;;;;;;5054696;28;20033;-78
2022/12/10 00:30:08;;;;;;;146.00;41.63;;;0.60;99.90;;;;;;5054829;28;20024;-78
2022/12/10 00:32:34;;;;;;;134.02;41.28;;;0.60;99.90;;;;;;5066567;28;20024;-78
2022/12/10 00:35:00;;;;;;;139.85;41.67;;;0.60;99.90;;;;;;5073721;28;20380;-78
2022/12/10 00:37:25;;;;;;;145.15;42.67;;;0.60;99.90;;;;;;5070718;28;20016;-78
2022/12/10 00:39:51;;;;;;;144.20;43.03;;;0.60;99.90;;;;;;5071708;28;20059;-77
2022/12/10 00:42:16;;;;;;;138.30;42.40;;;0.60;99.90;;;;;;5073023;28;20247;-78
2022/12/10 00:44:42;;;;;;;138.38;42.67;;;0.50;99.90;;;;;;5072093;28;20025;-76
2022/12/10 00:47:07;;;;;;;146.35;43.58;;;0.50;99.90;;;;;;5066974;28;20029;-77
2022/12/10 00:49:33;;;;;;;145.13;42.05;;;0.50;99.90;;;;;;5060368;28;20692;-77
2022/12/10 00:51:59;;;;;;;145.55;43.10;;;0.50;99.90;;;;;;5070786;28;20067;-77
2022/12/10 00:54:24;;;;;;;145.40;42.45;;;0.50;99.90;;;;;;5066983;28;20036;-77
2022/12/10 00:56:50;;;;;;;139.93;44.28;;;0.40;99.90;;;;;;5060268;28;20089;-77
2022/12/10 00:59:15;;;;;;;144.38;42.47;;;0.40;99.90;;;;;;5071983;28;20029;-78
2022/12/10 01:01:42;;;;;;;141.48;43.22;;;0.40;99.90;;;;;;5070883;28;20138;-78
2022/12/10 01:04:14;;;;;;;144.25;42.13;;;0.40;99.90;;;;;;5053290;28;20080;-77
2022/12/10 01:06:49;;;;;;;139.45;42.63;;;0.40;99.90;;;;;;5060324;28;20029;-77
2022/12/10 01:09:17;;;;;;;141.07;41.35;;;0.40;99.90;;;;;;5057909;28;20024;-77
2022/12/10 01:11:45;;;;;;;144.13;42.35;;;0.40;99.90;;;;;;5071352;28;20033;-77
2022/12/10 01:14:13;;;;;;;139.98;42.72;;;0.40;99.90;;;;;;5063284;28;20082;-77
2022/12/10 01:16:38;;;;;;;146.50;44.50;;;0.40;99.90;;;;;;5065136;28;20027;-77
2022/12/10 01:19:05;;;;;;;145.45;44.03;;;0.40;99.90;;;;;;5071583;28;20028;-77
2022/12/10 01:21:31;;;;;;;138.27;41.83;;;0.40;99.90;;;;;;5072028;28;20529;-77
2022/12/10 01:23:57;;;;;;;139.88;41.88;;;0.50;99.90;;;;;;5056405;28;20024;-77
2022/12/10 01:26:26;;;;;;;135.43;42.83;;;0.50;99.90;;;;;;5071114;28;20079;-77
2022/12/10 01:28:52;;;;;;;144.63;43.10;;;0.50;99.90;;;;;;5067890;28;20527;-77
2022/12/10 01:31:39;;;;;;;145.77;44.47;;;0.50;99.90;;;;;;5071926;28;20024;-77
2022/12/10 01:34:07;;;;;;;157.50;46.65;;;0.50;99.90;;;;;;5070197;28;20475;-77
2022/12/10 01:36:35;;;;;;;159.48;47.03;;;0.50;99.90;;;;;;5064352;28;20497;-77
2022/12/10 01:39:03;;;;;;;162.68;46.28;;;0.60;99.90;;;;;;5069562;28;20469;-77
2022/12/10 01:41:34;;;;;;;151.13;47.65;;;0.60;99.90;;;;;;5064028;28;20017;-77
2022/12/10 01:44:01;;;;;;;161.18;47.83;;;0.60;99.90;;;;;;5058186;28;20029;-77
2022/12/10 01:46:29;;;;;;;164.20;48.78;;;0.70;99.90;;;;;;5067206;28;20104;-77
2022/12/10 01:48:56;;;;;;;177.48;51.00;;;0.70;99.90;;;;;;5081228;28;20503;-77
2022/12/10 01:51:23;;;;;;;169.57;48.75;;;0.70;99.90;;;;;;5049993;28;20048;-77
2022/12/10 01:53:49;;;;;;;169.88;49.92;;;0.70;99.90;;;;;;5065103;28;20061;-77
2022/12/10 01:56:17;;;;;;;172.75;50.08;;;0.80;99.90;;;;;;5054814;28;20472;-77
2022/12/10 01:58:44;;;;;;;185.85;51.92;;;0.80;99.90;;;;;;5071078;28;20033;-77
2022/12/10 02:01:15;;;;;;;182.48;50.00;;;0.80;99.90;;;;;;5071532;28;20070;-77
2022/12/10 02:04:17;;;;;;;202.80;52.35;;;0.80;99.90;;;;;;5072009;28;20029;-77
2022/12/10 02:06:58;;;;;;;221.60;51.92;;;0.80;99.90;;;;;;5051619;28;20052;-77
2022/12/10 02:09:58;;;;;;;184.38;52.10;;;0.80;99.90;;;;;;5082084;28;20027;-77
2022/12/10 02:12:47;;;;;;;179.68;51.13;;;0.80;99.90;;;;;;5064890;28;20021;-77
2022/12/10 02:15:19;;;;;;;195.57;51.00;;;0.80;99.90;;;;;;5066943;28;20034;-76
2022/12/10 02:17:53;;;;;;;225.43;52.92;;;0.80;99.90;;;;;;5054153;28;20028;-77
2022/12/10 02:20:24;;;;;;;175.35;51.10;;;0.80;99.90;;;;;;5056783;28;20477;-78
2022/12/10 02:23:20;;;;;;;290.85;55.40;;;0.90;99.90;;;;;;5069101;28;20020;-77
2022/12/10 02:25:51;;;;;;;267.80;53.97;;;0.90;99.90;;;;;;5063225;28;20041;-78
2022/12/10 02:28:25;;;;;;;207.75;54.28;;;0.90;99.90;;;;;;5069925;28;20025;-77
2022/12/10 02:30:52;;;;;;;;;;;0.90;99.90;;;;;;5071310;28;20059;-77
2022/12/10 02:33:19;;;;;;;312.20;52.15;;;0.90;99.90;;;;;;5059632;28;19904;-77
2022/12/10 02:35:49;;;;;;;366.08;53.33;;;0.90;99.90;;;;;;5067164;28;20024;-77
2022/12/10 02:38:25;;;;;;;287.02;50.65;;;0.90;99.90;;;;;;5069210;28;20020;-77
2022/12/10 02:40:58;;;;;;;340.05;55.28;;;0.90;99.90;;;;;;5067171;28;20024;-77
2022/12/10 02:43:26;;;;;;;314.45;51.58;;;0.90;99.90;;;;;;5070682;28;20016;-78
2022/12/10 02:45:52;;;;;;;282.38;52.25;;;0.90;99.90;;;;;;5068274;28;20028;-77
2022/12/10 02:48:19;;;;;;;307.88;51.97;;;0.90;99.90;;;;;;5060940;28;20109;-78
2022/12/10 02:50:44;;;;;;;316.65;51.63;;;0.90;99.90;;;;;;5068129;28;20056;-78
2022/12/10 02:53:10;;;;;;;272.33;51.65;;;0.90;99.90;;;;;;5067871;28;20017;-77
2022/12/10 02:56:01;;;;;;;275.80;48.28;;;0.90;99.90;;;;;;5069558;28;20060;-78
2022/12/10 02:58:55;;;;;;;223.93;49.15;;;0.90;99.90;;;;;;5063002;28;20028;-77
2022/12/10 03:01:41;;;;;;;243.90;49.45;;;0.90;99.90;;;;;;5063538;28;20039;-78
2022/12/10 03:04:12;;;;;;;253.57;49.03;;;0.90;99.90;;;;;;5071027;28;20024;-77
2022/12/10 03:06:51;;;;;;;209.63;49.35;;;0.90;99.90;;;;;;5068287;28;20025;-78
2022/12/10 03:09:24;;;;;;;324.42;51.33;;;0.90;99.90;;;;;;5060812;28;20025;-78
2022/12/10 03:11:58;;;;;;;349.23;50.58;;;0.90;99.90;;;;;;5066958;28;20029;-78
2022/12/10 03:14:28;;;;;;;370.63;52.72;;;0.90;99.90;;;;;;5067569;28;20038;-78
2022/12/10 03:16:59;;;;;;;415.45;54.10;;;0.90;99.90;;;;;;5073425;28;20104;-77
2022/12/10 03:19:36;;;;;;;305.70;48.58;;;1.00;99.90;;;;;;5067549;28;20037;-77
2022/12/10 03:22:03;;;;;;;307.48;49.65;;;1.00;99.90;;;;;;5052542;28;20388;-78
2022/12/10 03:24:29;;;;;;;428.92;50.53;;;1.00;99.90;;;;;;5064038;28;20031;-78
2022/12/10 03:26:57;;;;;;;458.70;52.05;;;1.10;99.90;;;;;;5069192;28;20100;-77
2022/12/10 03:29:33;;;;;;;303.08;46.92;;;1.10;99.90;;;;;;5069099;28;20028;-78
2022/12/10 03:32:00;;;;;;;395.52;48.33;;;1.10;99.90;;;;;;5070757;28;20036;-78
2022/12/10 03:34:25;;;;;;;414.80;52.20;;;1.00;99.90;;;;;;5064492;28;20104;-78
2022/12/10 03:36:52;;;;;;;389.17;49.92;;;1.10;99.90;;;;;;5066546;28;20127;-77
2022/12/10 03:39:18;;;;;;;334.23;45.58;;;1.00;99.90;;;;;;5058966;28;20029;-78
2022/12/10 03:41:44;;;;;;;341.05;48.80;;;1.00;99.90;;;;;;5070986;28;20080;-77
2022/12/10 03:44:09;;;;;;;291.85;45.58;;;1.00;99.90;;;;;;5065684;28;20067;-77
2022/12/10 03:46:37;;;;;;;351.05;47.45;;;1.00;99.90;;;;;;5072585;28;20021;-78
2022/12/10 03:49:03;;;;;;;354.45;48.25;;;1.00;99.90;;;;;;5074045;28;20324;-77
2022/12/10 03:51:29;;;;;;;248.73;44.97;;;1.00;99.90;;;;;;5070827;28;20021;-78
2022/12/10 03:53:55;;;;;;;232.82;44.80;;;1.10;99.90;;;;;;5065980;28;20028;-77
2022/12/10 03:56:21;;;;;;;370.60;51.17;;;1.00;99.90;;;;;;5055307;28;20036;-78
2022/12/10 03:58:47;;;;;;;252.18;45.65;;;1.10;99.90;;;;;;5069142;28;20043;-77
2022/12/10 04:01:14;;;;;;;331.75;49.78;;;1.10;99.90;;;;;;5067703;28;20460;-78
2022/12/10 04:03:41;;;;;;;324.52;48.58;;;1.10;99.90;;;;;;5070674;28;20024;-77
2022/12/10 04:06:14;;;;;;;280.00;45.78;;;1.10;99.90;;;;;;5068845;28;20029;-77
2022/12/10 04:08:39;;;;;;;249.02;43.25;;;1.10;99.90;;;;;;5059286;28;20390;-77
2022/12/10 04:11:09;;;;;;;250.82;42.97;;;1.10;99.90;;;;;;5067176;28;20036;-78
2022/12/10 04:16:26;;;;;;;275.88;43.55;;;1.00;99.90;;;;;;5059958;28;20032;-78
2022/12/10 04:18:56;;;;;;;194.25;41.75;;;1.00;99.90;;;;;;5059867;28;20049;-77
2022/12/10 04:26:58;;;;;;;339.13;43.60;;;1.00;99.90;;;;;;5085778;28;20388;-77
2022/12/10 04:29:28;;;;;;;233.73;43.85;;;1.10;99.90;;;;;;5071779;28;20029;-78
2022/12/10 04:31:54;;;;;;;267.23;43.88;;;1.10;99.90;;;;;;5071258;28;20021;-78
2022/12/10 04:34:20;;;;;;;227.65;42.65;;;1.10;99.90;;;;;;5069660;28;20021;-76
2022/12/10 04:36:46;;;;;;;213.60;42.85;;;1.10;99.90;;;;;;5070434;28;20044;-77
2022/12/10 04:39:13;;;;;;;194.80;41.63;;;1.10;99.90;;;;;;5070446;28;20032;-78
2022/12/10 04:41:40;;;;;;;291.63;43.08;;;1.10;99.90;;;;;;5071687;28;20063;-77
2022/12/10 04:44:07;;;;;;;215.32;40.67;;;1.10;99.90;;;;;;5082160;28;20099;-78
2022/12/10 04:46:32;;;;;;;307.00;43.85;;;1.10;99.90;;;;;;5086051;28;20020;-77
2022/12/10 04:48:58;;;;;;;297.35;43.08;;;1.10;99.90;;;;;;5063411;28;20025;-78
2022/12/10 04:51:24;;;;;;;273.80;43.17;;;1.10;99.90;;;;;;5055108;28;20033;-78
2022/12/10 04:53:49;;;;;;;221.40;42.83;;;1.10;99.90;;;;;;5054631;28;20033;-78
2022/12/10 04:56:15;;;;;;;262.15;41.88;;;1.20;99.90;;;;;;5059279;28;20024;-78
2022/12/10 04:58:40;;;;;;;285.80;42.38;;;1.20;99.90;;;;;;5068329;28;20078;-78
2022/12/10 05:01:10;;;;;;;239.15;42.42;;;1.20;99.90;;;;;;5066814;28;20086;-78
2022/12/10 05:03:36;;;;;;;327.20;44.60;;;1.20;99.90;;;;;;5065371;28;20036;-77
2022/12/10 05:06:07;;;;;;;356.10;42.88;;;1.20;99.90;;;;;;5056748;28;20404;-78
2022/12/10 05:08:34;;;;;;;217.15;41.70;;;1.20;99.90;;;;;;5053341;28;20516;-78
2022/12/10 05:11:05;;;;;;;316.00;43.03;;;1.20;99.90;;;;;;5065302;28;20028;-78
2022/12/10 05:13:30;;;;;;;229.82;40.22;;;1.20;99.90;;;;;;5069502;28;20070;-78
2022/12/10 05:15:57;;;;;;;224.23;41.28;;;1.20;99.90;;;;;;5070096;28;20107;-78
2022/12/10 05:18:23;;;;;;;319.67;44.03;;;1.20;99.90;;;;;;5056067;28;20066;-78
2022/12/10 05:20:49;;;;;;;187.93;39.22;;;1.20;99.90;;;;;;5069093;28;20026;-79
2022/12/10 05:23:29;;;;;;;283.60;40.95;;;1.20;99.90;;;;;;5068852;28;20485;-76
2022/12/10 05:26:19;;;;;;;252.50;38.67;;;1.20;99.90;;;;;;5064214;28;20055;-78
2022/12/10 05:28:55;;;;;;;273.52;39.20;;;1.20;99.90;;;;;;5066171;28;20407;-76
2022/12/10 05:31:27;;;;;;;227.55;37.90;;;1.10;99.90;;;;;;5066810;28;20115;-77
2022/12/10 05:33:54;;;;;;;177.88;34.92;;;1.10;99.90;;;;;;5065728;28;20108;-77
2022/12/10 05:36:22;;;;;;;214.55;37.63;;;1.10;99.90;;;;;;5059921;28;20024;-77
2022/12/10 05:38:49;;;;;;;232.55;38.22;;;1.20;99.90;;;;;;5068866;28;20040;-76
2022/12/10 05:41:17;;;;;;;248.20;38.83;;;1.20;99.90;;;;;;5069570;28;20046;-78
2022/12/10 05:43:44;;;;;;;257.85;39.90;;;1.10;99.90;;;;;;5069666;28;20008;-78
2022/12/10 05:46:12;;;;;;;145.43;34.65;;;1.10;99.90;;;;;;5070146;28;20024;-77
2022/12/10 05:48:38;;;;;;;202.93;34.08;;;1.10;99.90;;;;;;5055806;28;20024;-78
2022/12/10 05:51:08;;;;;;;245.15;36.65;;;1.10;99.90;;;;;;5059256;28;20045;-78
2022/12/10 05:53:35;;;;;;;187.68;35.42;;;1.20;99.90;;;;;;5049732;28;20024;-77
2022/12/10 05:56:04;;;;;;;263.70;38.08;;;1.10;99.90;;;;;;5059969;28;20101;-77
2022/12/10 05:58:30;;;;;;;205.23;37.60;;;1.10;99.90;;;;;;5054908;28;20028;-78
2022/12/10 06:00:57;;;;;;;208.48;37.30;;;1.10;99.90;;;;;;5065801;28;20125;-78
2022/12/10 06:03:23;;;;;;;141.18;35.78;;;1.20;99.90;;;;;;5056917;28;20025;-77
2022/12/10 06:05:49;;;;;;;230.65;38.53;;;1.20;99.90;;;;;;5066354;28;20074;-77
2022/12/10 06:08:14;;;;;;;223.40;39.78;;;1.20;99.90;;;;;;5055662;28;20029;-77
2022/12/10 06:10:40;;;;;;;215.80;40.50;;;1.20;99.90;;;;;;5059895;28;20021;-77
2022/12/10 06:13:05;;;;;;;229.93;41.83;;;1.30;99.90;;;;;;5061689;28;20425;-77
2022/12/10 06:15:32;;;;;;;227.23;41.03;;;1.30;99.90;;;;;;5067603;28;20051;-78
2022/12/10 06:17:58;;;;;;;212.90;39.17;;;1.30;99.90;;;;;;5064894;28;20021;-77
2022/12/10 06:20:25;;;;;;;202.93;39.80;;;1.30;99.90;;;;;;5055745;28;20079;-78
2022/12/10 06:22:51;;;;;;;272.73;40.75;;;1.30;99.90;;;;;;5069067;28;20025;-78
2022/12/10 06:25:18;;;;;;;240.93;37.92;;;1.30;99.90;;;;;;5059160;28;20033;-77
2022/12/10 06:27:44;;;;;;;185.45;36.63;;;1.30;99.90;;;;;;5053951;28;20017;-77
2022/12/10 06:30:10;;;;;;;226.00;37.05;;;1.30;99.90;;;;;;5065525;28;20620;-78
2022/12/10 06:32:35;;;;;;;247.25;35.97;;;1.30;99.90;;;;;;5058524;28;20438;-78
2022/12/10 06:35:02;;;;;;;166.80;34.50;;;1.30;99.90;;;;;;5077412;28;20028;-77
2022/12/10 06:37:28;;;;;;;140.35;33.00;;;1.20;99.90;;;;;;5086508;28;20121;-77
2022/12/10 06:39:53;;;;;;;159.65;33.60;;;1.20;99.90;;;;;;5078086;28;20515;-78
2022/12/10 06:42:20;;;;;;;192.20;33.60;;;1.20;99.90;;;;;;5074134;28;20017;-78
2022/12/10 06:44:46;;;;;;;147.90;32.15;;;1.10;99.90;;;;;;5080681;28;20024;-77
2022/12/10 06:47:12;;;;;;;152.65;32.95;;;1.10;99.90;;;;;;5086231;28;20024;-77
2022/12/10 06:49:38;;;;;;;196.80;34.83;;;1.10;99.90;;;;;;5077163;28;20071;-77
2022/12/10 06:52:04;;;;;;;219.82;36.20;;;1.10;99.90;;;;;;5076388;28;20087;-78
2022/12/10 06:54:30;;;;;;;135.80;34.05;;;1.10;99.90;;;;;;5069340;28;20021;-76
2022/12/10 06:56:56;;;;;;;172.70;33.88;;;1.10;99.90;;;;;;5076897;28;20513;-77
2022/12/10 06:59:22;;;;;;;146.43;34.72;;;1.10;99.90;;;;;;5068782;28;20511;-76
2022/12/10 07:01:48;;;;;;;168.18;35.05;;;1.10;99.90;;;;;;5080634;28;20028;-77
2022/12/10 07:04:13;;;;;;;191.07;35.20;;;1.10;99.90;;;;;;5060597;28;20024;-77
2022/12/10 07:06:39;;;;;;;152.70;35.13;;;1.10;99.90;;;;;;5074126;28;20358;-76
2022/12/10 07:09:05;;;;;;;146.15;36.83;;;1.10;99.90;;;;;;5082305;28;20034;-77
2022/12/10 07:11:31;;;;;;;144.95;34.97;;;1.10;99.90;;;;;;5078145;28;20476;-77
2022/12/10 07:13:57;;;;;;;160.82;35.47;;;1.10;99.90;;;;;;5091723;28;20035;-77
2022/12/10 07:16:28;;;;;;;184.48;37.13;;;1.10;99.90;;;;;;5069980;28;20059;-76
2022/12/10 07:18:55;;;;;;;155.32;34.13;;;1.10;99.90;;;;;;5073989;28;20028;-75
2022/12/10 07:21:33;;;;;;;146.45;34.67;;;1.10;99.90;;;;;;5073940;28;20032;-77
2022/12/10 07:24:05;;;;;;;129.77;35.35;;;1.10;99.90;;;;;;5074070;28;20020;-77
2022/12/10 07:26:34;;;;;;;129.82;36.10;;;1.10;99.90;;;;;;5067469;28;20030;-77
2022/12/10 07:29:01;;;;;;;117.72;33.50;;;1.10;99.90;;;;;;5072456;28;20029;-77
2022/12/10 07:31:27;;;;;;;161.48;36.47;;;1.10;99.90;;;;;;5071164;28;20028;-77
2022/12/10 07:33:53;;;;;;;119.88;35.25;;;1.10;99.90;;;;;;5074795;28;20365;-77
2022/12/10 07:36:22;;;;;;;169.50;38.35;;;1.10;99.90;;;;;;5070096;28;20059;-77
2022/12/10 07:38:48;;;;;;;163.70;36.83;;;1.10;99.90;;;;;;5074661;28;20032;-77
2022/12/10 07:41:14;;;;;;;133.95;36.42;;;1.10;99.90;;;;;;5068107;28;20016;-77
2022/12/10 07:43:41;;;;;;;177.70;39.80;;;1.10;99.90;;;;;;5063493;28;20016;-77
2022/12/10 07:46:13;;;;;;;149.80;36.83;;;1.10;99.90;;;;;;5069951;28;20484;-77
2022/12/10 07:48:40;;;;;;;143.73;37.00;;;1.10;99.90;;;;;;5058721;28;20087;-77
2022/12/10 07:51:06;;;;;;;140.38;36.72;;;1.10;99.90;;;;;;5057817;28;20075;-77
2022/12/10 07:53:32;;;;;;;153.85;38.33;;;1.10;99.90;;;;;;5067908;28;20021;-77
2022/12/10 07:55:58;;;;;;;171.60;38.53;;;1.20;99.90;;;;;;5066581;28;20024;-77
2022/12/10 07:58:23;;;;;;;146.05;37.92;;;1.10;99.90;;;;;;5073864;28;20536;-77
2022/12/10 08:00:49;;;;;;;133.80;36.55;;;1.20;99.90;;;;;;5078868;28;20042;-77
2022/12/10 08:03:15;;;;;;;149.40;38.53;;;1.20;99.90;;;;;;5067030;28;20047;-77
2022/12/10 08:05:40;;;;;;;145.27;37.78;;;1.20;99.90;;;;;;5071360;28;20495;-77
2022/12/10 08:08:06;;;;;;;130.48;36.83;;;1.20;99.90;;;;;;5066967;28;20047;-77
2022/12/10 08:10:39;;;;;;;192.85;39.47;;;1.30;99.90;;;;;;5064555;28;20515;-77
2022/12/10 08:13:05;;;;;;;168.60;39.33;;;1.30;99.90;;;;;;5057430;28;20020;-77
2022/12/10 08:15:31;;;;;;;182.20;38.00;;;1.30;99.90;;;;;;5077943;28;20020;-77
2022/12/10 08:17:57;;;;;;;135.63;37.95;;;1.30;99.90;;;;;;5072620;28;20039;-77
2022/12/10 08:20:24;;;;;;;145.73;38.97;;;1.30;99.90;;;;;;5079838;28;20032;-77
2022/12/10 08:22:50;;;;;;;133.35;36.58;;;1.30;99.90;;;;;;5067466;28;20036;-77
2022/12/10 08:25:16;;;;;;;146.82;38.35;;;1.30;99.90;;;;;;5063765;28;20036;-77
2022/12/10 08:27:42;;;;;;;145.30;38.53;;;1.30;99.90;;;;;;5064924;28;20439;-77
2022/12/10 08:30:08;;;;;;;145.57;38.10;;;1.30;99.90;;;;;;5070473;28;20044;-77
2022/12/10 08:32:34;;;;;;;161.20;39.97;;;1.30;99.90;;;;;;5068134;28;20055;-77
2022/12/10 08:34:59;;;;;;;166.40;38.75;;;1.30;99.90;;;;;;5061940;28;20013;-77
2022/12/10 08:37:25;;;;;;;158.60;38.50;;;1.30;99.90;;;;;;5077414;28;20055;-77
2022/12/10 08:39:50;;;;;;;171.73;39.50;;;1.20;99.90;;;;;;5081201;28;20071;-78
2022/12/10 08:42:16;;;;;;;171.05;39.65;;;1.30;99.90;;;;;;5076278;28;20043;-78
2022/12/10 08:44:41;;;;;;;183.43;40.42;;;1.20;99.90;;;;;;5085352;28;20086;-78
2022/12/10 08:47:07;;;;;;;204.57;41.35;;;1.20;99.90;;;;;;5065036;28;20055;-79
2022/12/10 08:49:33;;;;;;;165.15;40.10;;;1.20;99.90;;;;;;5069723;28;20071;-78
2022/12/10 08:51:58;;;;;;;198.70;41.00;;;1.20;99.90;;;;;;5068485;28;20025;-78
2022/12/10 08:54:24;;;;;;;147.85;39.65;;;1.20;99.90;;;;;;5070255;28;20060;-78
2022/12/10 08:56:50;;;;;;;171.57;38.72;;;1.20;99.90;;;;;;5075409;28;20099;-77
2022/12/10 08:59:16;;;;;;;159.27;41.22;;;1.20;99.90;;;;;;5071284;28;20510;-76
2022/12/10 09:01:41;;;;;;;147.63;39.72;;;1.20;99.90;;;;;;5071051;28;20061;-76
2022/12/10 09:04:07;;;;;;;161.80;40.92;;;1.20;99.90;;;;;;5064286;28;20029;-76
2022/12/10 09:06:33;;;;;;;160.32;39.83;;;1.20;99.90;;;;;;5077677;28;20027;-77
2022/12/10 09:08:59;;;;;;;142.35;40.70;;;1.20;99.90;;;;;;5071727;28;20021;-77
2022/12/10 09:11:30;;;;;;;144.13;39.35;;;1.20;99.90;;;;;;5074234;28;20017;-77
2022/12/10 09:13:56;;;;;;;143.20;37.80;;;1.20;99.90;;;;;;5069240;28;20012;-76
2022/12/10 09:16:29;;;;;;;158.73;38.92;;;1.20;99.90;;;;;;5065978;28;20025;-77
2022/12/10 09:18:54;;;;;;;150.02;37.42;;;1.10;99.90;;;;;;5061243;28;20115;-77
2022/12/10 09:21:20;;;;;;;142.38;38.22;;;1.10;99.90;;;;;;5056792;28;20100;-77
2022/12/10 09:23:46;;;;;;;160.75;37.60;;;1.10;99.90;;;;;;5059271;28;20021;-77
2022/12/10 09:26:14;;;;;;;138.55;38.05;;;1.10;99.90;;;;;;5068718;28;20058;-76
2022/12/10 09:28:40;;;;;;;120.28;37.25;;;1.00;99.90;;;;;;5068553;28;20039;-75
2022/12/10 09:31:07;;;;;;;140.88;39.03;;;1.00;99.90;;;;;;5069274;28;20117;-77
2022/12/10 09:33:33;;;;;;;132.82;37.28;;;1.10;99.90;;;;;;5068849;28;20117;-77
2022/12/10 09:35:59;;;;;;;140.30;40.08;;;1.10;99.90;;;;;;5070851;28;20380;-76
2022/12/10 09:38:25;;;;;;;144.77;37.22;;;1.10;99.90;;;;;;5068691;28;20027;-76
2022/12/10 09:41:02;;;;;;;155.73;38.55;;;1.10;99.90;;;;;;5069117;28;20029;-76
2022/12/10 09:43:30;;;;;;;146.38;38.88;;;1.10;99.90;;;;;;5065863;28;20190;-76
2022/12/10 09:46:04;;;;;;;141.48;38.15;;;1.10;99.90;;;;;;5056241;28;20032;-76
2022/12/10 09:49:11;;;;;;;150.13;39.60;;;1.10;99.90;;;;;;5073993;28;20028;-76
2022/12/10 09:51:38;;;;;;;140.55;38.85;;;1.20;99.90;;;;;;5079840;28;20066;-77
2022/12/10 09:54:25;;;;;;;140.70;39.58;;;1.20;99.90;;;;;;5052350;28;20021;-76
2022/12/10 09:56:53;;;;;;;165.90;39.33;;;1.30;99.90;;;;;;5059588;28;20036;-76
2022/12/10 09:59:29;;;;;;;158.25;39.42;;;1.30;99.90;;;;;;5077437;28;20028;-77
2022/12/10 10:02:10;;;;;;;138.13;38.17;;;1.30;99.90;;;;;;5078118;28;20674;-77
2022/12/10 10:04:35;;;;;;;136.85;38.08;;;1.30;99.90;;;;;;5081624;28;20084;-77
2022/12/10 10:07:02;;;;;;;144.50;36.78;;;1.20;99.90;;;;;;5063049;28;20476;-77
2022/12/10 10:09:28;;;;;;;131.82;36.25;;;1.20;99.90;;;;;;5077955;28;20559;-77
2022/12/10 10:11:53;;;;;;;148.00;36.88;;;1.10;99.90;;;;;;5080169;28;20024;-77
2022/12/10 10:14:28;;;;;;;142.43;36.22;;;1.10;99.90;;;;;;5073333;28;20052;-77
2022/12/10 10:17:01;;;;;;;128.38;35.30;;;1.10;99.90;;;;;;5063140;28;20028;-77
2022/12/10 10:19:34;;;;;;;131.02;36.53;;;1.10;99.90;;;;;;5075691;28;20043;-77
2022/12/10 10:22:00;;;;;;;137.10;37.72;;;1.10;99.90;;;;;;5064455;28;20017;-77
2022/12/10 10:24:34;;;;;;;126.25;37.17;;;1.10;99.90;;;;;;5061578;28;20028;-76
2022/12/10 10:27:15;;;;;;;136.77;37.63;;;1.10;99.90;;;;;;5077745;28;20062;-76
2022/12/10 10:29:43;;;;;;;117.05;36.83;;;1.10;99.90;;;;;;5079159;28;20095;-76
2022/12/10 10:32:16;;;;;;;123.60;38.30;;;1.10;99.90;;;;;;5070363;28;20622;-76
2022/12/10 10:34:42;;;;;;;119.63;36.20;;;1.20;99.90;;;;;;5088458;28;20036;-76
2022/12/10 10:37:25;;;;;;;138.02;38.13;;;1.20;99.90;;;;;;5084433;28;20020;-76
2022/12/10 10:39:51;;;;;;;133.63;37.88;;;1.20;99.90;;;;;;5067937;28;20043;-76
2022/12/10 10:42:40;;;;;;;123.20;36.53;;;1.20;99.90;;;;;;5066003;28;20023;-76
2022/12/10 10:45:33;;;;;;;123.72;36.08;;;1.10;99.90;;;;;;5067682;28;20116;-76
2022/12/10 10:48:25;;;;;;;121.03;36.58;;;1.10;99.90;;;;;;5069798;28;20025;-77
2022/12/10 10:51:04;;;;;;;109.65;36.30;;;1.10;99.90;;;;;;5066232;28;20055;-77
2022/12/10 10:53:39;;;;;;;103.53;34.20;;;1.10;99.90;;;;;;5072090;28;20012;-76
2022/12/10 10:56:11;;;;;;;113.55;36.42;;;1.10;99.90;;;;;;5070400;28;20039;-76
2022/12/10 10:59:06;;;;;;;99.57;33.22;;;1.10;99.90;;;;;;5066666;28;20095;-76
2022/12/10 11:01:52;;;;;;;99.10;33.47;;;1.20;99.90;;;;;;5074139;28;20033;-77
2022/12/10 11:04:27;;;;;;;96.10;31.75;;;1.20;99.90;;;;;;5061527;28;20046;-77
2022/12/10 11:06:56;;;;;;;100.57;34.70;;;1.20;99.90;;;;;;5068548;28;20511;-77
2022/12/10 11:09:27;;;;;;;107.88;35.47;;;1.20;99.90;;;;;;5072093;28;20580;-77
2022/12/10 11:12:18;;;;;;;113.53;35.75;;;1.30;99.90;;;;;;5074244;28;20036;-76
2022/12/10 11:14:45;;;;;;;119.40;36.22;;;1.30;99.90;;;;;;5068243;28;20029;-77
2022/12/10 11:17:19;;;;;;;127.20;37.90;;;1.20;99.90;;;;;;5069809;28;20477;-76
2022/12/10 11:19:56;;;;;;;128.27;37.57;;;1.30;99.90;;;;;;5070517;28;20489;-77
2022/12/10 11:22:29;;;;;;;131.52;37.20;;;1.40;99.90;;;;;;5063035;28;20055;-77
2022/12/10 11:24:55;;;;;;;132.23;39.25;;;1.40;99.90;;;;;;5052698;28;20507;-76
2022/12/10 11:27:57;;;;;;;125.53;38.13;;;1.40;99.90;;;;;;5068300;28;20020;-76
2022/12/10 11:30:25;;;;;;;137.60;38.58;;;1.40;99.90;;;;;;5069998;28;20353;-76
2022/12/10 11:32:56;;;;;;;130.32;37.40;;;1.40;99.90;;;;;;5073126;28;20032;-76
2022/12/10 11:35:48;;;;;;;132.65;37.58;;;1.40;99.90;;;;;;5071689;28;20032;-76
2022/12/10 11:38:28;;;;;;;134.93;37.92;;;1.40;99.90;;;;;;5073485;28;20036;-76
2022/12/10 11:41:06;;;;;;;126.50;36.67;;;1.40;99.90;;;;;;5068973;28;20052;-77
2022/12/10 11:44:10;;;;;;;130.18;37.13;;;1.40;99.90;;;;;;5071269;28;20028;-77
2022/12/10 11:46:42;;;;;;;124.03;36.72;;;1.50;99.90;;;;;;5069225;28;20054;-76
2022/12/10 11:49:32;;;;;;;126.13;36.67;;;1.40;99.90;;;;;;5072603;28;20594;-77
2022/12/10 11:52:20;;;;;;;126.72;36.97;;;1.40;99.90;;;;;;5072478;28;20499;-76
2022/12/10 11:54:55;;;;;;;129.25;37.97;;;1.50;99.90;;;;;;5072860;28;20054;-77
2022/12/10 11:57:39;;;;;;;133.40;36.92;;;1.50;99.90;;;;;;5071064;28;20103;-76
2022/12/10 12:00:05;;;;;;;128.40;37.50;;;1.50;99.90;;;;;;5074712;28;20029;-76
2022/12/10 12:02:48;;;;;;;121.22;36.00;;;1.50;99.90;;;;;;5071521;28;20063;-77
2022/12/10 12:05:21;;;;;;;110.15;34.60;;;1.50;99.90;;;;;;5071908;28;20020;-77
2022/12/10 12:08:02;;;;;;;112.90;34.92;;;1.50;99.90;;;;;;5063354;28;20021;-76
2022/12/10 12:10:52;;;;;;;115.57;35.60;;;1.60;99.90;;;;;;5070819;28;20031;-77
2022/12/10 12:13:31;;;;;;;115.47;34.60;;;1.60;99.90;;;;;;5089088;28;20435;-77
2022/12/10 12:16:06;;;;;;;123.20;36.05;;;1.60;99.90;;;;;;5079399;28;20411;-76
2022/12/10 12:18:38;;;;;;;;;;;1.60;99.90;;;;;;5082287;28;20051;-76
2022/12/10 12:21:09;;;;;;;119.78;36.55;;;1.60;99.90;;;;;;5069972;28;19915;-77
2022/12/10 12:23:46;;;;;;;123.07;36.08;;;1.50;99.90;;;;;;5088826;28;20085;-77
2022/12/10 12:26:38;;;;;;;117.53;35.47;;;1.60;99.90;;;;;;5071505;28;20040;-77
2022/12/10 12:29:12;;;;;;;117.13;36.15;;;1.60;99.90;;;;;;5066279;28;20371;-77
2022/12/10 12:31:47;;;;;;;111.88;35.90;;;1.60;99.90;;;;;;5076273;28;20017;-77
2022/12/10 12:34:23;;;;;;;115.18;36.20;;;1.60;99.90;;;;;;5063400;28;20029;-77
2022/12/10 12:36:50;;;;;;;115.65;35.70;;;1.60;99.90;;;;;;5061366;28;20055;-76
2022/12/10 12:39:48;;;;;;;121.95;35.53;;;1.60;99.90;;;;;;5091052;28;20033;-76
2022/12/10 12:42:36;;;;;;;137.35;36.65;;;1.60;99.90;;;;;;5076058;28;20127;-77
2022/12/10 12:45:28;;;;;;;121.68;35.47;;;1.60;99.90;;;;;;5077689;28;20009;-77
2022/12/10 12:48:09;;;;;;;131.48;36.25;;;1.60;99.90;;;;;;5065929;28;20033;-77
2022/12/10 12:50:57;;;;;;;123.55;36.35;;;1.60;99.90;;;;;;5059857;28;20553;-77
2022/12/10 12:53:25;;;;;;;126.85;36.85;;;1.70;99.90;;;;;;5084845;28;20024;-77